Terminal Aerodrome Forecast
Issued by NWS Corpus Christi, TX

Home | Current Version | Previous Version | Text Only | Print | Product List | Glossary On
Versions: 1 2 3 4 5 6 7 8 9 10 11 12 13 14 15 16 17
860
FTUS44 KCRP 281131
TAFCRP
TAF
KCRP 281131Z 2812/2912 16010KT P6SM OVC018
     FM281500 16015G22KT P6SM SCT022 BKN250
     FM281800 14018G25KT P6SM SCT035 BKN250
     FM290100 14012KT P6SM OVC025
     FM290800 13008KT P6SM VCTS OVC015CB=

USA.gov is the U.S. government's official web portal to all federal, state and local government web resources and services.